sensor_id;sensor_type;location;lat;lon;timestamp;P1;durP1;ratioP1;P2;durP2;ratioP2
8819;SDS011;4446;50.876;4.736;2023-02-18T00:01:33;16.63;;;11.40;;
8819;SDS011;4446;50.876;4.736;2023-02-18T00:03:59;15.25;;;10.80;;
8819;SDS011;4446;50.876;4.736;2023-02-18T00:06:27;15.13;;;10.77;;
8819;SDS011;4446;50.876;4.736;2023-02-18T00:08:57;14.32;;;10.00;;
8819;SDS011;4446;50.876;4.736;2023-02-18T00:11:26;13.88;;;9.65;;
8819;SDS011;4446;50.876;4.736;2023-02-18T00:13:55;14.98;;;9.73;;
8819;SDS011;4446;50.876;4.736;2023-02-18T00:16:23;12.68;;;9.93;;
8819;SDS011;4446;50.876;4.736;2023-02-18T00:18:53;13.88;;;10.43;;
8819;SDS011;4446;50.876;4.736;2023-02-18T00:21:21;13.85;;;10.05;;
8819;SDS011;4446;50.876;4.736;2023-02-18T00:23:48;13.57;;;9.75;;
8819;SDS011;4446;50.876;4.736;2023-02-18T00:26:17;10.85;;;8.90;;
8819;SDS011;4446;50.876;4.736;2023-02-18T00:28:44;13.60;;;9.68;;
8819;SDS011;4446;50.876;4.736;2023-02-18T00:31:13;12.75;;;9.40;;
8819;SDS011;4446;50.876;4.736;2023-02-18T00:33:41;11.32;;;8.80;;
8819;SDS011;4446;50.876;4.736;2023-02-18T00:36:09;14.60;;;8.88;;
8819;SDS011;4446;50.876;4.736;2023-02-18T00:38:37;10.52;;;8.05;;
8819;SDS011;4446;50.876;4.736;2023-02-18T00:41:05;12.60;;;8.45;;
8819;SDS011;4446;50.876;4.736;2023-02-18T00:43:33;11.80;;;8.63;;
8819;SDS011;4446;50.876;4.736;2023-02-18T00:46:00;10.30;;;7.60;;
8819;SDS011;4446;50.876;4.736;2023-02-18T00:48:27;10.05;;;7.63;;
8819;SDS011;4446;50.876;4.736;2023-02-18T00:50:54;10.88;;;7.32;;
8819;SDS011;4446;50.876;4.736;2023-02-18T00:53:21;9.98;;;7.70;;
8819;SDS011;4446;50.876;4.736;2023-02-18T00:55:48;9.15;;;6.95;;
8819;SDS011;4446;50.876;4.736;2023-02-18T00:58:15;8.65;;;6.82;;
8819;SDS011;4446;50.876;4.736;2023-02-18T01:00:43;11.02;;;6.50;;
8819;SDS011;4446;50.876;4.736;2023-02-18T01:03:11;8.88;;;6.82;;
8819;SDS011;4446;50.876;4.736;2023-02-18T01:05:39;10.85;;;6.57;;
8819;SDS011;4446;50.876;4.736;2023-02-18T01:08:07;7.28;;;6.13;;
8819;SDS011;4446;50.876;4.736;2023-02-18T01:10:35;9.13;;;6.65;;
8819;SDS011;4446;50.876;4.736;2023-02-18T01:13:05;7.70;;;6.22;;
8819;SDS011;4446;50.876;4.736;2023-02-18T01:15:32;7.43;;;5.80;;
8819;SDS011;4446;50.876;4.736;2023-02-18T01:18:00;7.47;;;5.95;;
8819;SDS011;4446;50.876;4.736;2023-02-18T01:20:27;7.40;;;5.68;;
8819;SDS011;4446;50.876;4.736;2023-02-18T01:22:54;7.45;;;5.72;;
8819;SDS011;4446;50.876;4.736;2023-02-18T01:25:21;5.63;;;4.88;;
8819;SDS011;4446;50.876;4.736;2023-02-18T01:27:48;6.20;;;4.90;;
8819;SDS011;4446;50.876;4.736;2023-02-18T01:30:16;5.90;;;4.15;;
8819;SDS011;4446;50.876;4.736;2023-02-18T01:32:44;4.40;;;4.00;;
8819;SDS011;4446;50.876;4.736;2023-02-18T01:35:13;5.13;;;3.78;;
8819;SDS011;4446;50.876;4.736;2023-02-18T01:37:42;4.13;;;3.70;;
8819;SDS011;4446;50.876;4.736;2023-02-18T01:40:10;4.43;;;3.70;;
8819;SDS011;4446;50.876;4.736;2023-02-18T01:42:39;3.42;;;3.00;;
8819;SDS011;4446;50.876;4.736;2023-02-18T01:48:08;3.10;;;2.80;;
8819;SDS011;4446;50.876;4.736;2023-02-18T01:50:39;3.10;;;2.80;;
8819;SDS011;4446;50.876;4.736;2023-02-18T01:53:07;3.40;;;2.90;;
8819;SDS011;4446;50.876;4.736;2023-02-18T01:55:35;3.13;;;2.67;;
8819;SDS011;4446;50.876;4.736;2023-02-18T01:58:03;2.67;;;2.35;;
8819;SDS011;4446;50.876;4.736;2023-02-18T02:00:30;2.70;;;2.50;;
8819;SDS011;4446;50.876;4.736;2023-02-18T02:02:57;2.53;;;2.33;;
8819;SDS011;4446;50.876;4.736;2023-02-18T02:05:28;2.60;;;2.40;;
8819;SDS011;4446;50.876;4.736;2023-02-18T02:07:58;2.47;;;2.15;;
8819;SDS011;4446;50.876;4.736;2023-02-18T02:10:28;2.47;;;2.10;;
8819;SDS011;4446;50.876;4.736;2023-02-18T02:13:02;2.22;;;2.03;;
8819;SDS011;4446;50.876;4.736;2023-02-18T02:15:40;2.30;;;2.10;;
8819;SDS011;4446;50.876;4.736;2023-02-18T02:18:17;3.60;;;2.05;;
8819;SDS011;4446;50.876;4.736;2023-02-18T02:21:02;2.45;;;2.25;;
8819;SDS011;4446;50.876;4.736;2023-02-18T02:27:02;2.53;;;2.25;;
8819;SDS011;4446;50.876;4.736;2023-02-18T02:29:50;2.65;;;2.30;;
8819;SDS011;4446;50.876;4.736;2023-02-18T02:35:45;2.60;;;2.40;;
8819;SDS011;4446;50.876;4.736;2023-02-18T02:38:18;2.78;;;2.58;;
8819;SDS011;4446;50.876;4.736;2023-02-18T02:40:51;2.90;;;2.70;;
8819;SDS011;4446;50.876;4.736;2023-02-18T02:43:26;2.95;;;2.65;;
8819;SDS011;4446;50.876;4.736;2023-02-18T02:46:01;3.25;;;2.95;;
8819;SDS011;4446;50.876;4.736;2023-02-18T02:48:32;3.50;;;3.20;;
8819;SDS011;4446;50.876;4.736;2023-02-18T02:51:05;4.45;;;3.30;;
8819;SDS011;4446;50.876;4.736;2023-02-18T02:53:36;3.30;;;2.92;;
8819;SDS011;4446;50.876;4.736;2023-02-18T02:56:08;3.25;;;2.80;;
8819;SDS011;4446;50.876;4.736;2023-02-18T02:58:38;3.10;;;2.80;;
8819;SDS011;4446;50.876;4.736;2023-02-18T03:01:10;3.60;;;2.78;;
8819;SDS011;4446;50.876;4.736;2023-02-18T03:03:54;3.20;;;2.90;;
8819;SDS011;4446;50.876;4.736;2023-02-18T03:07:03;3.20;;;2.90;;
8819;SDS011;4446;50.876;4.736;2023-02-18T03:10:01;3.28;;;2.97;;
8819;SDS011;4446;50.876;4.736;2023-02-18T03:12:44;3.00;;;2.70;;
8819;SDS011;4446;50.876;4.736;2023-02-18T03:15:20;2.95;;;2.70;;
8819;SDS011;4446;50.876;4.736;2023-02-18T03:17:54;3.10;;;2.80;;
8819;SDS011;4446;50.876;4.736;2023-02-18T03:20:26;3.20;;;2.90;;
8819;SDS011;4446;50.876;4.736;2023-02-18T03:22:58;3.78;;;3.00;;
8819;SDS011;4446;50.876;4.736;2023-02-18T03:25:28;3.10;;;2.80;;
8819;SDS011;4446;50.876;4.736;2023-02-18T03:27:58;3.10;;;2.80;;
8819;SDS011;4446;50.876;4.736;2023-02-18T03:30:29;3.90;;;2.70;;
8819;SDS011;4446;50.876;4.736;2023-02-18T03:33:01;3.15;;;2.85;;
8819;SDS011;4446;50.876;4.736;2023-02-18T03:35:31;3.20;;;2.70;;
8819;SDS011;4446;50.876;4.736;2023-02-18T03:38:01;3.53;;;3.08;;
8819;SDS011;4446;50.876;4.736;2023-02-18T03:40:32;3.00;;;2.65;;
8819;SDS011;4446;50.876;4.736;2023-02-18T03:42:59;2.88;;;2.65;;
8819;SDS011;4446;50.876;4.736;2023-02-18T03:45:26;2.88;;;2.67;;
8819;SDS011;4446;50.876;4.736;2023-02-18T03:47:53;2.65;;;2.40;;
8819;SDS011;4446;50.876;4.736;2023-02-18T03:50:20;2.78;;;2.42;;
8819;SDS011;4446;50.876;4.736;2023-02-18T03:52:47;2.90;;;2.60;;
8819;SDS011;4446;50.876;4.736;2023-02-18T03:55:16;3.42;;;2.63;;
8819;SDS011;4446;50.876;4.736;2023-02-18T03:57:43;2.90;;;2.38;;
8819;SDS011;4446;50.876;4.736;2023-02-18T04:00:10;3.60;;;2.88;;
8819;SDS011;4446;50.876;4.736;2023-02-18T04:02:38;3.20;;;2.90;;
8819;SDS011;4446;50.876;4.736;2023-02-18T04:05:05;3.50;;;3.17;;
8819;SDS011;4446;50.876;4.736;2023-02-18T04:07:33;3.47;;;3.05;;
8819;SDS011;4446;50.876;4.736;2023-02-18T04:10:00;3.05;;;2.75;;
8819;SDS011;4446;50.876;4.736;2023-02-18T04:12:29;3.58;;;3.17;;
8819;SDS011;4446;50.876;4.736;2023-02-18T04:14:55;3.88;;;3.20;;
8819;SDS011;4446;50.876;4.736;2023-02-18T04:17:24;3.50;;;3.15;;
8819;SDS011;4446;50.876;4.736;2023-02-18T04:19:50;3.42;;;2.90;;
8819;SDS011;4446;50.876;4.736;2023-02-18T04:22:17;3.40;;;3.10;;
8819;SDS011;4446;50.876;4.736;2023-02-18T04:24:44;3.50;;;3.20;;
8819;SDS011;4446;50.876;4.736;2023-02-18T04:27:11;3.25;;;2.95;;
8819;SDS011;4446;50.876;4.736;2023-02-18T04:29:39;3.00;;;2.70;;
8819;SDS011;4446;50.876;4.736;2023-02-18T04:32:06;3.50;;;2.80;;
8819;SDS011;4446;50.876;4.736;2023-02-18T04:34:33;4.82;;;2.97;;
8819;SDS011;4446;50.876;4.736;2023-02-18T04:37:00;3.53;;;2.63;;
8819;SDS011;4446;50.876;4.736;2023-02-18T04:39:27;3.30;;;2.80;;
8819;SDS011;4446;50.876;4.736;2023-02-18T04:41:54;3.42;;;2.90;;
8819;SDS011;4446;50.876;4.736;2023-02-18T04:44:21;2.75;;;2.53;;
8819;SDS011;4446;50.876;4.736;2023-02-18T04:46:49;2.85;;;2.55;;
8819;SDS011;4446;50.876;4.736;2023-02-18T04:49:16;4.57;;;3.70;;
8819;SDS011;4446;50.876;4.736;2023-02-18T04:51:43;4.05;;;2.97;;
8819;SDS011;4446;50.876;4.736;2023-02-18T04:54:10;3.30;;;3.00;;
8819;SDS011;4446;50.876;4.736;2023-02-18T04:56:37;3.33;;;3.03;;
8819;SDS011;4446;50.876;4.736;2023-02-18T04:59:04;3.90;;;3.53;;
8819;SDS011;4446;50.876;4.736;2023-02-18T05:01:31;4.30;;;3.90;;
8819;SDS011;4446;50.876;4.736;2023-02-18T05:03:59;3.88;;;2.95;;
8819;SDS011;4446;50.876;4.736;2023-02-18T05:06:26;3.90;;;3.35;;
8819;SDS011;4446;50.876;4.736;2023-02-18T05:08:53;3.92;;;3.60;;
8819;SDS011;4446;50.876;4.736;2023-02-18T05:11:20;3.58;;;3.28;;
8819;SDS011;4446;50.876;4.736;2023-02-18T05:13:46;3.85;;;3.45;;
8819;SDS011;4446;50.876;4.736;2023-02-18T05:16:13;4.25;;;3.85;;
8819;SDS011;4446;50.876;4.736;2023-02-18T05:18:40;3.80;;;3.40;;
8819;SDS011;4446;50.876;4.736;2023-02-18T05:21:08;3.97;;;3.67;;
8819;SDS011;4446;50.876;4.736;2023-02-18T05:23:36;3.83;;;3.53;;
8819;SDS011;4446;50.876;4.736;2023-02-18T05:26:03;3.53;;;3.22;;
8819;SDS011;4446;50.876;4.736;2023-02-18T05:28:30;2.88;;;2.60;;
8819;SDS011;4446;50.876;4.736;2023-02-18T05:30:57;3.83;;;2.65;;
8819;SDS011;4446;50.876;4.736;2023-02-18T05:33:24;3.15;;;2.50;;
8819;SDS011;4446;50.876;4.736;2023-02-18T05:35:50;3.03;;;2.60;;
8819;SDS011;4446;50.876;4.736;2023-02-18T05:38:19;3.25;;;2.95;;
8819;SDS011;4446;50.876;4.736;2023-02-18T05:40:46;3.00;;;2.67;;
8819;SDS011;4446;50.876;4.736;2023-02-18T05:43:13;2.53;;;2.33;;
8819;SDS011;4446;50.876;4.736;2023-02-18T05:45:40;3.00;;;2.70;;
8819;SDS011;4446;50.876;4.736;2023-02-18T05:48:07;2.40;;;2.20;;
8819;SDS011;4446;50.876;4.736;2023-02-18T05:50:34;2.53;;;2.20;;
8819;SDS011;4446;50.876;4.736;2023-02-18T05:53:01;2.15;;;1.95;;
8819;SDS011;4446;50.876;4.736;2023-02-18T05:55:29;2.75;;;2.17;;
8819;SDS011;4446;50.876;4.736;2023-02-18T05:57:57;2.50;;;2.30;;
8819;SDS011;4446;50.876;4.736;2023-02-18T06:00:24;3.70;;;3.40;;
8819;SDS011;4446;50.876;4.736;2023-02-18T06:02:51;2.47;;;1.70;;
8819;SDS011;4446;50.876;4.736;2023-02-18T06:05:18;4.50;;;2.00;;
8819;SDS011;4446;50.876;4.736;2023-02-18T06:07:45;3.03;;;2.83;;
8819;SDS011;4446;50.876;4.736;2023-02-18T06:10:12;3.15;;;2.28;;
8819;SDS011;4446;50.876;4.736;2023-02-18T06:12:40;5.70;;;2.53;;
8819;SDS011;4446;50.876;4.736;2023-02-18T06:15:07;4.15;;;2.35;;
8819;SDS011;4446;50.876;4.736;2023-02-18T06:17:34;6.35;;;3.22;;
8819;SDS011;4446;50.876;4.736;2023-02-18T06:20:01;6.18;;;2.67;;
8819;SDS011;4446;50.876;4.736;2023-02-18T06:22:28;5.18;;;2.40;;
8819;SDS011;4446;50.876;4.736;2023-02-18T06:24:55;5.30;;;2.50;;
8819;SDS011;4446;50.876;4.736;2023-02-18T06:27:22;6.18;;;2.40;;
8819;SDS011;4446;50.876;4.736;2023-02-18T06:29:50;6.30;;;2.70;;
8819;SDS011;4446;50.876;4.736;2023-02-18T06:32:17;8.90;;;2.85;;
8819;SDS011;4446;50.876;4.736;2023-02-18T06:34:44;5.80;;;2.50;;
8819;SDS011;4446;50.876;4.736;2023-02-18T06:37:11;8.38;;;2.83;;
8819;SDS011;4446;50.876;4.736;2023-02-18T06:39:38;6.53;;;3.00;;
8819;SDS011;4446;50.876;4.736;2023-02-18T06:42:05;4.75;;;3.13;;
8819;SDS011;4446;50.876;4.736;2023-02-18T06:44:32;8.85;;;2.60;;
8819;SDS011;4446;50.876;4.736;2023-02-18T06:47:00;11.07;;;3.00;;
8819;SDS011;4446;50.876;4.736;2023-02-18T06:49:27;9.45;;;3.05;;
8819;SDS011;4446;50.876;4.736;2023-02-18T06:51:54;7.55;;;2.38;;
8819;SDS011;4446;50.876;4.736;2023-02-18T06:54:21;7.07;;;2.60;;
8819;SDS011;4446;50.876;4.736;2023-02-18T06:56:49;9.35;;;2.80;;
8819;SDS011;4446;50.876;4.736;2023-02-18T06:59:16;6.95;;;2.60;;
8819;SDS011;4446;50.876;4.736;2023-02-18T07:01:43;7.30;;;2.65;;
8819;SDS011;4446;50.876;4.736;2023-02-18T07:04:11;9.60;;;3.05;;
8819;SDS011;4446;50.876;4.736;2023-02-18T07:06:38;8.48;;;2.80;;
8819;SDS011;4446;50.876;4.736;2023-02-18T07:09:05;13.75;;;3.20;;
8819;SDS011;4446;50.876;4.736;2023-02-18T07:11:32;6.75;;;2.35;;
8819;SDS011;4446;50.876;4.736;2023-02-18T07:13:59;8.35;;;2.80;;
8819;SDS011;4446;50.876;4.736;2023-02-18T07:16:26;8.95;;;2.67;;
8819;SDS011;4446;50.876;4.736;2023-02-18T07:18:53;8.20;;;2.40;;
8819;SDS011;4446;50.876;4.736;2023-02-18T07:21:21;16.65;;;3.00;;
8819;SDS011;4446;50.876;4.736;2023-02-18T07:23:48;10.45;;;2.42;;
8819;SDS011;4446;50.876;4.736;2023-02-18T07:26:15;8.57;;;2.50;;
8819;SDS011;4446;50.876;4.736;2023-02-18T07:28:42;7.18;;;2.17;;
8819;SDS011;4446;50.876;4.736;2023-02-18T07:31:09;10.82;;;2.85;;
8819;SDS011;4446;50.876;4.736;2023-02-18T07:33:36;10.70;;;2.97;;
8819;SDS011;4446;50.876;4.736;2023-02-18T07:36:03;11.93;;;2.67;;
8819;SDS011;4446;50.876;4.736;2023-02-18T07:38:32;7.07;;;3.13;;
8819;SDS011;4446;50.876;4.736;2023-02-18T07:40:58;10.93;;;2.90;;
8819;SDS011;4446;50.876;4.736;2023-02-18T07:43:26;10.27;;;3.10;;
8819;SDS011;4446;50.876;4.736;2023-02-18T07:45:53;8.73;;;2.75;;
8819;SDS011;4446;50.876;4.736;2023-02-18T07:48:20;7.75;;;3.08;;
8819;SDS011;4446;50.876;4.736;2023-02-18T07:50:47;9.85;;;2.72;;
8819;SDS011;4446;50.876;4.736;2023-02-18T07:53:14;14.07;;;2.92;;
8819;SDS011;4446;50.876;4.736;2023-02-18T07:55:43;10.95;;;2.67;;
8819;SDS011;4446;50.876;4.736;2023-02-18T07:58:16;10.48;;;2.83;;
8819;SDS011;4446;50.876;4.736;2023-02-18T08:00:43;11.75;;;3.25;;
8819;SDS011;4446;50.876;4.736;2023-02-18T08:03:11;9.80;;;2.92;;
8819;SDS011;4446;50.876;4.736;2023-02-18T08:05:39;11.02;;;2.88;;
8819;SDS011;4446;50.876;4.736;2023-02-18T08:08:05;10.70;;;2.53;;
8819;SDS011;4446;50.876;4.736;2023-02-18T08:10:32;6.93;;;2.85;;
8819;SDS011;4446;50.876;4.736;2023-02-18T08:13:01;8.35;;;2.80;;
8819;SDS011;4446;50.876;4.736;2023-02-18T08:15:27;6.10;;;2.22;;
8819;SDS011;4446;50.876;4.736;2023-02-18T08:17:54;8.82;;;2.88;;
8819;SDS011;4446;50.876;4.736;2023-02-18T08:20:21;11.20;;;1.90;;
8819;SDS011;4446;50.876;4.736;2023-02-18T08:22:48;10.68;;;2.20;;
8819;SDS011;4446;50.876;4.736;2023-02-18T08:25:15;7.90;;;2.50;;
8819;SDS011;4446;50.876;4.736;2023-02-18T08:27:42;11.80;;;3.10;;
8819;SDS011;4446;50.876;4.736;2023-02-18T08:30:11;9.20;;;2.60;;
8819;SDS011;4446;50.876;4.736;2023-02-18T08:32:38;9.60;;;2.95;;
8819;SDS011;4446;50.876;4.736;2023-02-18T08:35:05;6.35;;;2.67;;
8819;SDS011;4446;50.876;4.736;2023-02-18T08:37:32;9.85;;;3.42;;
8819;SDS011;4446;50.876;4.736;2023-02-18T08:40:00;10.05;;;3.00;;
8819;SDS011;4446;50.876;4.736;2023-02-18T08:42:27;9.85;;;2.60;;
8819;SDS011;4446;50.876;4.736;2023-02-18T08:44:54;6.03;;;1.90;;
8819;SDS011;4446;50.876;4.736;2023-02-18T08:47:22;10.30;;;2.80;;
8819;SDS011;4446;50.876;4.736;2023-02-18T08:49:51;5.20;;;2.20;;
8819;SDS011;4446;50.876;4.736;2023-02-18T08:52:18;9.18;;;2.67;;
8819;SDS011;4446;50.876;4.736;2023-02-18T08:54:45;9.07;;;2.72;;
8819;SDS011;4446;50.876;4.736;2023-02-18T08:57:12;7.57;;;2.15;;
8819;SDS011;4446;50.876;4.736;2023-02-18T08:59:39;9.85;;;2.40;;
8819;SDS011;4446;50.876;4.736;2023-02-18T09:02:06;7.80;;;2.13;;
8819;SDS011;4446;50.876;4.736;2023-02-18T09:04:34;7.63;;;2.40;;
8819;SDS011;4446;50.876;4.736;2023-02-18T09:07:01;8.82;;;2.33;;
8819;SDS011;4446;50.876;4.736;2023-02-18T09:09:28;7.13;;;2.08;;
8819;SDS011;4446;50.876;4.736;2023-02-18T09:11:55;7.53;;;2.10;;
8819;SDS011;4446;50.876;4.736;2023-02-18T09:14:23;8.98;;;2.00;;
8819;SDS011;4446;50.876;4.736;2023-02-18T09:16:49;9.52;;;2.50;;
8819;SDS011;4446;50.876;4.736;2023-02-18T09:19:16;6.05;;;2.08;;
8819;SDS011;4446;50.876;4.736;2023-02-18T09:21:45;7.20;;;1.80;;
8819;SDS011;4446;50.876;4.736;2023-02-18T09:24:12;9.00;;;2.28;;
8819;SDS011;4446;50.876;4.736;2023-02-18T09:26:38;6.82;;;1.90;;
8819;SDS011;4446;50.876;4.736;2023-02-18T09:29:05;6.32;;;1.80;;
8819;SDS011;4446;50.876;4.736;2023-02-18T09:31:32;4.88;;;1.70;;
8819;SDS011;4446;50.876;4.736;2023-02-18T09:34:00;7.10;;;1.92;;
8819;SDS011;4446;50.876;4.736;2023-02-18T09:36:28;5.63;;;1.73;;
8819;SDS011;4446;50.876;4.736;2023-02-18T09:38:56;3.38;;;1.70;;
8819;SDS011;4446;50.876;4.736;2023-02-18T09:41:31;5.20;;;1.75;;
8819;SDS011;4446;50.876;4.736;2023-02-18T09:44:04;4.18;;;1.67;;
8819;SDS011;4446;50.876;4.736;2023-02-18T09:46:35;6.75;;;2.00;;
8819;SDS011;4446;50.876;4.736;2023-02-18T09:49:06;4.43;;;1.63;;
8819;SDS011;4446;50.876;4.736;2023-02-18T09:51:39;3.78;;;1.88;;
8819;SDS011;4446;50.876;4.736;2023-02-18T09:54:08;5.03;;;1.90;;
8819;SDS011;4446;50.876;4.736;2023-02-18T09:56:37;5.90;;;1.98;;
8819;SDS011;4446;50.876;4.736;2023-02-18T09:59:08;4.25;;;2.13;;
8819;SDS011;4446;50.876;4.736;2023-02-18T10:01:40;6.13;;;2.10;;
8819;SDS011;4446;50.876;4.736;2023-02-18T10:04:09;5.47;;;2.17;;
8819;SDS011;4446;50.876;4.736;2023-02-18T10:06:40;5.07;;;2.20;;
8819;SDS011;4446;50.876;4.736;2023-02-18T10:09:12;3.45;;;2.03;;
8819;SDS011;4446;50.876;4.736;2023-02-18T10:11:46;6.03;;;2.17;;
8819;SDS011;4446;50.876;4.736;2023-02-18T10:14:15;6.97;;;2.60;;
8819;SDS011;4446;50.876;4.736;2023-02-18T10:16:43;7.72;;;2.40;;
8819;SDS011;4446;50.876;4.736;2023-02-18T10:19:17;5.72;;;2.30;;
8819;SDS011;4446;50.876;4.736;2023-02-18T10:21:48;4.40;;;2.22;;
8819;SDS011;4446;50.876;4.736;2023-02-18T10:24:21;10.00;;;2.40;;
8819;SDS011;4446;50.876;4.736;2023-02-18T10:26:54;6.85;;;2.47;;
8819;SDS011;4446;50.876;4.736;2023-02-18T10:29:21;4.18;;;2.20;;
8819;SDS011;4446;50.876;4.736;2023-02-18T10:31:51;5.15;;;2.70;;
8819;SDS011;4446;50.876;4.736;2023-02-18T10:34:23;6.97;;;2.40;;
8819;SDS011;4446;50.876;4.736;2023-02-18T10:37:06;8.55;;;2.55;;
8819;SDS011;4446;50.876;4.736;2023-02-18T10:42:42;4.50;;;2.40;;
8819;SDS011;4446;50.876;4.736;2023-02-18T10:45:18;6.45;;;2.30;;
8819;SDS011;4446;50.876;4.736;2023-02-18T10:47:55;6.43;;;2.50;;
8819;SDS011;4446;50.876;4.736;2023-02-18T10:50:30;5.05;;;2.78;;
8819;SDS011;4446;50.876;4.736;2023-02-18T10:53:07;7.43;;;2.83;;
8819;SDS011;4446;50.876;4.736;2023-02-18T10:55:38;5.28;;;2.63;;
8819;SDS011;4446;50.876;4.736;2023-02-18T11:00:57;5.60;;;3.08;;
8819;SDS011;4446;50.876;4.736;2023-02-18T11:03:27;8.20;;;2.92;;
8819;SDS011;4446;50.876;4.736;2023-02-18T11:06:05;7.82;;;3.08;;
8819;SDS011;4446;50.876;4.736;2023-02-18T11:08:43;8.38;;;2.80;;
8819;SDS011;4446;50.876;4.736;2023-02-18T11:11:13;4.68;;;2.58;;
8819;SDS011;4446;50.876;4.736;2023-02-18T11:13:44;8.05;;;2.88;;
8819;SDS011;4446;50.876;4.736;2023-02-18T11:16:20;6.70;;;3.30;;
8819;SDS011;4446;50.876;4.736;2023-02-18T11:18:48;9.75;;;3.83;;
8819;SDS011;4446;50.876;4.736;2023-02-18T11:21:20;5.80;;;3.10;;
8819;SDS011;4446;50.876;4.736;2023-02-18T11:23:52;3.53;;;3.00;;
8819;SDS011;4446;50.876;4.736;2023-02-18T11:26:21;5.07;;;3.38;;
8819;SDS011;4446;50.876;4.736;2023-02-18T11:28:58;5.97;;;2.85;;
8819;SDS011;4446;50.876;4.736;2023-02-18T11:31:30;6.05;;;3.53;;
8819;SDS011;4446;50.876;4.736;2023-02-18T11:34:05;4.90;;;2.72;;
8819;SDS011;4446;50.876;4.736;2023-02-18T11:36:36;5.07;;;2.95;;
8819;SDS011;4446;50.876;4.736;2023-02-18T11:39:04;4.55;;;2.60;;
8819;SDS011;4446;50.876;4.736;2023-02-18T11:41:41;6.80;;;2.60;;
8819;SDS011;4446;50.876;4.736;2023-02-18T11:44:18;7.47;;;3.13;;
8819;SDS011;4446;50.876;4.736;2023-02-18T11:46:55;7.50;;;2.80;;
8819;SDS011;4446;50.876;4.736;2023-02-18T11:49:24;7.57;;;2.80;;
8819;SDS011;4446;50.876;4.736;2023-02-18T11:51:51;8.82;;;2.75;;
8819;SDS011;4446;50.876;4.736;2023-02-18T11:54:21;5.05;;;2.67;;
8819;SDS011;4446;50.876;4.736;2023-02-18T11:56:54;10.35;;;2.83;;
8819;SDS011;4446;50.876;4.736;2023-02-18T11:59:25;5.55;;;2.50;;
8819;SDS011;4446;50.876;4.736;2023-02-18T12:01:56;5.00;;;2.35;;
8819;SDS011;4446;50.876;4.736;2023-02-18T12:04:29;6.78;;;2.67;;
8819;SDS011;4446;50.876;4.736;2023-02-18T12:07:05;6.47;;;2.75;;
8819;SDS011;4446;50.876;4.736;2023-02-18T12:09:41;4.40;;;2.58;;
8819;SDS011;4446;50.876;4.736;2023-02-18T12:12:12;8.98;;;3.00;;
8819;SDS011;4446;50.876;4.736;2023-02-18T12:14:44;7.60;;;2.97;;
8819;SDS011;4446;50.876;4.736;2023-02-18T12:17:24;7.65;;;3.08;;
8819;SDS011;4446;50.876;4.736;2023-02-18T12:20:06;8.70;;;2.78;;
8819;SDS011;4446;50.876;4.736;2023-02-18T12:22:49;5.90;;;3.47;;
8819;SDS011;4446;50.876;4.736;2023-02-18T12:25:23;8.82;;;3.33;;
8819;SDS011;4446;50.876;4.736;2023-02-18T12:28:10;9.98;;;2.80;;
8819;SDS011;4446;50.876;4.736;2023-02-18T12:30:50;6.57;;;2.85;;
8819;SDS011;4446;50.876;4.736;2023-02-18T12:33:31;5.93;;;2.85;;
8819;SDS011;4446;50.876;4.736;2023-02-18T12:36:09;6.72;;;2.40;;
8819;SDS011;4446;50.876;4.736;2023-02-18T12:38:54;6.45;;;2.25;;
8819;SDS011;4446;50.876;4.736;2023-02-18T12:41:31;5.22;;;2.35;;
8819;SDS011;4446;50.876;4.736;2023-02-18T12:44:11;7.07;;;2.30;;
8819;SDS011;4446;50.876;4.736;2023-02-18T12:46:58;7.45;;;2.53;;
8819;SDS011;4446;50.876;4.736;2023-02-18T12:50:01;7.22;;;2.55;;
8819;SDS011;4446;50.876;4.736;2023-02-18T12:52:41;5.82;;;2.97;;
8819;SDS011;4446;50.876;4.736;2023-02-18T12:55:20;6.78;;;2.65;;
8819;SDS011;4446;50.876;4.736;2023-02-18T12:58:09;6.18;;;2.38;;
8819;SDS011;4446;50.876;4.736;2023-02-18T13:00:59;7.03;;;2.38;;
8819;SDS011;4446;50.876;4.736;2023-02-18T13:03:45;9.55;;;2.38;;
8819;SDS011;4446;50.876;4.736;2023-02-18T13:09:33;7.20;;;2.90;;
8819;SDS011;4446;50.876;4.736;2023-02-18T13:12:13;5.20;;;2.20;;
8819;SDS011;4446;50.876;4.736;2023-02-18T13:14:47;10.77;;;3.53;;
8819;SDS011;4446;50.876;4.736;2023-02-18T13:17:21;6.20;;;2.50;;
8819;SDS011;4446;50.876;4.736;2023-02-18T13:19:54;7.13;;;2.85;;
8819;SDS011;4446;50.876;4.736;2023-02-18T13:22:24;6.88;;;3.47;;
8819;SDS011;4446;50.876;4.736;2023-02-18T13:24:54;7.15;;;2.80;;
8819;SDS011;4446;50.876;4.736;2023-02-18T13:27:25;8.75;;;2.75;;
8819;SDS011;4446;50.876;4.736;2023-02-18T13:30:08;9.60;;;3.00;;
8819;SDS011;4446;50.876;4.736;2023-02-18T13:32:50;8.10;;;3.20;;
8819;SDS011;4446;50.876;4.736;2023-02-18T13:35:28;10.05;;;2.80;;
8819;SDS011;4446;50.876;4.736;2023-02-18T13:38:02;6.93;;;2.75;;
8819;SDS011;4446;50.876;4.736;2023-02-18T13:40:54;10.15;;;3.42;;
8819;SDS011;4446;50.876;4.736;2023-02-18T13:43:28;5.30;;;2.13;;
8819;SDS011;4446;50.876;4.736;2023-02-18T13:46:01;8.68;;;3.50;;
8819;SDS011;4446;50.876;4.736;2023-02-18T13:48:29;7.15;;;3.00;;
8819;SDS011;4446;50.876;4.736;2023-02-18T13:51:02;7.32;;;3.00;;
8819;SDS011;4446;50.876;4.736;2023-02-18T13:53:31;9.80;;;3.65;;
8819;SDS011;4446;50.876;4.736;2023-02-18T13:56:04;10.13;;;3.25;;
8819;SDS011;4446;50.876;4.736;2023-02-18T13:58:35;7.25;;;3.17;;
8819;SDS011;4446;50.876;4.736;2023-02-18T14:01:11;8.40;;;3.15;;
8819;SDS011;4446;50.876;4.736;2023-02-18T14:03:52;8.23;;;2.92;;
8819;SDS011;4446;50.876;4.736;2023-02-18T14:06:23;5.10;;;2.90;;
8819;SDS011;4446;50.876;4.736;2023-02-18T14:09:01;5.97;;;3.13;;
8819;SDS011;4446;50.876;4.736;2023-02-18T14:11:38;4.63;;;2.97;;
8819;SDS011;4446;50.876;4.736;2023-02-18T14:14:14;6.07;;;3.22;;
8819;SDS011;4446;50.876;4.736;2023-02-18T14:17:13;5.32;;;2.75;;
8819;SDS011;4446;50.876;4.736;2023-02-18T14:22:59;10.00;;;4.32;;
8819;SDS011;4446;50.876;4.736;2023-02-18T14:25:32;5.25;;;3.58;;
8819;SDS011;4446;50.876;4.736;2023-02-18T14:28:02;7.43;;;4.00;;
8819;SDS011;4446;50.876;4.736;2023-02-18T14:30:50;10.27;;;5.15;;
8819;SDS011;4446;50.876;4.736;2023-02-18T14:33:17;11.32;;;4.00;;
8819;SDS011;4446;50.876;4.736;2023-02-18T14:35:45;8.82;;;4.43;;
8819;SDS011;4446;50.876;4.736;2023-02-18T14:38:26;7.10;;;3.95;;
8819;SDS011;4446;50.876;4.736;2023-02-18T14:41:10;6.13;;;3.67;;
8819;SDS011;4446;50.876;4.736;2023-02-18T14:44:13;7.00;;;3.47;;
8819;SDS011;4446;50.876;4.736;2023-02-18T14:46:55;8.93;;;3.92;;
8819;SDS011;4446;50.876;4.736;2023-02-18T14:49:34;6.80;;;3.70;;
8819;SDS011;4446;50.876;4.736;2023-02-18T14:52:05;6.57;;;3.58;;
8819;SDS011;4446;50.876;4.736;2023-02-18T14:54:41;5.63;;;3.80;;
8819;SDS011;4446;50.876;4.736;2023-02-18T14:57:12;10.55;;;4.20;;
8819;SDS011;4446;50.876;4.736;2023-02-18T14:59:41;6.43;;;3.03;;
8819;SDS011;4446;50.876;4.736;2023-02-18T15:02:14;5.75;;;3.30;;
8819;SDS011;4446;50.876;4.736;2023-02-18T15:04:44;7.13;;;3.17;;
8819;SDS011;4446;50.876;4.736;2023-02-18T15:07:11;9.05;;;3.38;;
8819;SDS011;4446;50.876;4.736;2023-02-18T15:09:44;6.82;;;3.30;;
8819;SDS011;4446;50.876;4.736;2023-02-18T15:12:13;9.60;;;3.58;;
8819;SDS011;4446;50.876;4.736;2023-02-18T15:14:44;5.75;;;3.15;;
8819;SDS011;4446;50.876;4.736;2023-02-18T15:17:14;7.35;;;3.40;;
8819;SDS011;4446;50.876;4.736;2023-02-18T15:19:43;7.57;;;3.67;;
8819;SDS011;4446;50.876;4.736;2023-02-18T15:22:14;7.78;;;4.35;;
8819;SDS011;4446;50.876;4.736;2023-02-18T15:24:45;8.70;;;4.30;;
8819;SDS011;4446;50.876;4.736;2023-02-18T15:27:15;8.60;;;4.43;;
8819;SDS011;4446;50.876;4.736;2023-02-18T15:29:44;8.80;;;4.57;;
8819;SDS011;4446;50.876;4.736;2023-02-18T15:32:15;8.77;;;5.05;;
8819;SDS011;4446;50.876;4.736;2023-02-18T15:34:44;8.50;;;4.20;;
8819;SDS011;4446;50.876;4.736;2023-02-18T15:37:14;6.57;;;2.78;;
8819;SDS011;4446;50.876;4.736;2023-02-18T15:39:41;6.60;;;2.78;;
8819;SDS011;4446;50.876;4.736;2023-02-18T15:42:12;5.65;;;2.88;;
8819;SDS011;4446;50.876;4.736;2023-02-18T15:44:46;7.80;;;3.15;;
8819;SDS011;4446;50.876;4.736;2023-02-18T15:47:15;4.70;;;2.60;;
8819;SDS011;4446;50.876;4.736;2023-02-18T15:49:45;7.43;;;3.13;;
8819;SDS011;4446;50.876;4.736;2023-02-18T15:52:14;8.35;;;3.22;;
8819;SDS011;4446;50.876;4.736;2023-02-18T15:54:41;5.68;;;3.10;;
8819;SDS011;4446;50.876;4.736;2023-02-18T15:57:11;7.28;;;3.10;;